sensor_id;sensor_type;location;lat;lon;timestamp;P1;durP1;ratioP1;P2;durP2;ratioP2
11473;SDS011;5793;52.238;13.438;2023-02-15T00:00:39;36.27;;;20.37;;
11473;SDS011;5793;52.238;13.438;2023-02-15T00:03:06;39.60;;;20.57;;
11473;SDS011;5793;52.238;13.438;2023-02-15T00:05:35;34.33;;;19.43;;
11473;SDS011;5793;52.238;13.438;2023-02-15T00:08:03;34.37;;;19.33;;
11473;SDS011;5793;52.238;13.438;2023-02-15T00:10:31;32.80;;;18.70;;
11473;SDS011;5793;52.238;13.438;2023-02-15T00:12:59;30.13;;;17.47;;
11473;SDS011;5793;52.238;13.438;2023-02-15T00:15:27;39.47;;;20.13;;
11473;SDS011;5793;52.238;13.438;2023-02-15T00:17:56;39.83;;;19.77;;
11473;SDS011;5793;52.238;13.438;2023-02-15T00:20:24;35.37;;;19.90;;
11473;SDS011;5793;52.238;13.438;2023-02-15T00:22:53;35.73;;;21.53;;
11473;SDS011;5793;52.238;13.438;2023-02-15T00:25:20;44.13;;;24.13;;
11473;SDS011;5793;52.238;13.438;2023-02-15T00:27:48;36.60;;;19.77;;
11473;SDS011;5793;52.238;13.438;2023-02-15T00:30:16;35.87;;;19.20;;
11473;SDS011;5793;52.238;13.438;2023-02-15T00:32:46;34.13;;;18.70;;
11473;SDS011;5793;52.238;13.438;2023-02-15T00:35:14;41.80;;;21.03;;
11473;SDS011;5793;52.238;13.438;2023-02-15T00:37:42;41.00;;;21.27;;
11473;SDS011;5793;52.238;13.438;2023-02-15T00:40:11;36.97;;;20.67;;
11473;SDS011;5793;52.238;13.438;2023-02-15T00:42:39;38.93;;;22.20;;
11473;SDS011;5793;52.238;13.438;2023-02-15T00:45:08;38.60;;;21.97;;
11473;SDS011;5793;52.238;13.438;2023-02-15T00:47:36;41.13;;;22.50;;
11473;SDS011;5793;52.238;13.438;2023-02-15T00:50:04;44.53;;;24.60;;
11473;SDS011;5793;52.238;13.438;2023-02-15T00:52:33;47.53;;;24.53;;
11473;SDS011;5793;52.238;13.438;2023-02-15T00:55:00;51.83;;;24.57;;
11473;SDS011;5793;52.238;13.438;2023-02-15T00:57:29;55.77;;;26.20;;
11473;SDS011;5793;52.238;13.438;2023-02-15T00:59:57;56.23;;;27.20;;
11473;SDS011;5793;52.238;13.438;2023-02-15T01:02:25;51.00;;;25.03;;
11473;SDS011;5793;52.238;13.438;2023-02-15T01:04:53;52.53;;;23.03;;
11473;SDS011;5793;52.238;13.438;2023-02-15T01:07:21;65.10;;;27.13;;
11473;SDS011;5793;52.238;13.438;2023-02-15T01:09:48;57.27;;;25.97;;
11473;SDS011;5793;52.238;13.438;2023-02-15T01:12:20;59.63;;;26.57;;
11473;SDS011;5793;52.238;13.438;2023-02-15T01:14:49;50.07;;;24.30;;
11473;SDS011;5793;52.238;13.438;2023-02-15T01:17:16;52.03;;;22.87;;
11473;SDS011;5793;52.238;13.438;2023-02-15T01:19:44;55.80;;;24.33;;
11473;SDS011;5793;52.238;13.438;2023-02-15T01:22:12;52.10;;;23.87;;
11473;SDS011;5793;52.238;13.438;2023-02-15T01:24:40;56.93;;;25.17;;
11473;SDS011;5793;52.238;13.438;2023-02-15T01:27:08;57.23;;;25.43;;
11473;SDS011;5793;52.238;13.438;2023-02-15T01:29:36;70.07;;;31.03;;
11473;SDS011;5793;52.238;13.438;2023-02-15T01:32:05;53.67;;;27.27;;
11473;SDS011;5793;52.238;13.438;2023-02-15T01:34:33;50.37;;;24.70;;
11473;SDS011;5793;52.238;13.438;2023-02-15T01:37:00;54.87;;;24.20;;
11473;SDS011;5793;52.238;13.438;2023-02-15T01:39:28;54.73;;;25.67;;
11473;SDS011;5793;52.238;13.438;2023-02-15T01:41:59;50.67;;;24.73;;
11473;SDS011;5793;52.238;13.438;2023-02-15T01:44:46;55.63;;;25.23;;
11473;SDS011;5793;52.238;13.438;2023-02-15T01:47:21;53.57;;;24.40;;
11473;SDS011;5793;52.238;13.438;2023-02-15T01:50:01;61.50;;;27.40;;
11473;SDS011;5793;52.238;13.438;2023-02-15T01:52:37;58.57;;;27.37;;
11473;SDS011;5793;52.238;13.438;2023-02-15T01:55:07;55.27;;;27.23;;
11473;SDS011;5793;52.238;13.438;2023-02-15T01:57:36;51.60;;;24.93;;
11473;SDS011;5793;52.238;13.438;2023-02-15T02:00:04;47.93;;;23.47;;
11473;SDS011;5793;52.238;13.438;2023-02-15T02:02:35;52.83;;;25.17;;
11473;SDS011;5793;52.238;13.438;2023-02-15T02:05:03;47.80;;;22.20;;
11473;SDS011;5793;52.238;13.438;2023-02-15T02:07:34;48.83;;;23.90;;
11473;SDS011;5793;52.238;13.438;2023-02-15T02:10:05;43.73;;;22.67;;
11473;SDS011;5793;52.238;13.438;2023-02-15T02:12:36;41.73;;;22.07;;
11473;SDS011;5793;52.238;13.438;2023-02-15T02:15:07;54.30;;;26.50;;
11473;SDS011;5793;52.238;13.438;2023-02-15T02:17:42;69.27;;;27.10;;
11473;SDS011;5793;52.238;13.438;2023-02-15T02:20:38;79.83;;;29.80;;
11473;SDS011;5793;52.238;13.438;2023-02-15T02:23:24;68.30;;;30.07;;
11473;SDS011;5793;52.238;13.438;2023-02-15T02:26:14;81.13;;;32.97;;
11473;SDS011;5793;52.238;13.438;2023-02-15T02:29:18;76.03;;;31.57;;
11473;SDS011;5793;52.238;13.438;2023-02-15T02:32:25;106.07;;;35.43;;
11473;SDS011;5793;52.238;13.438;2023-02-15T02:35:17;183.60;;;45.03;;
11473;SDS011;5793;52.238;13.438;2023-02-15T02:37:52;324.83;;;55.87;;
11473;SDS011;5793;52.238;13.438;2023-02-15T02:40:30;177.47;;;42.00;;
11473;SDS011;5793;52.238;13.438;2023-02-15T02:43:10;128.50;;;35.90;;
11473;SDS011;5793;52.238;13.438;2023-02-15T02:45:45;116.07;;;38.47;;
11473;SDS011;5793;52.238;13.438;2023-02-15T02:48:34;78.27;;;31.33;;
11473;SDS011;5793;52.238;13.438;2023-02-15T02:51:03;87.03;;;33.20;;
11473;SDS011;5793;52.238;13.438;2023-02-15T02:53:31;152.93;;;39.87;;
11473;SDS011;5793;52.238;13.438;2023-02-15T02:56:03;167.07;;;39.13;;
11473;SDS011;5793;52.238;13.438;2023-02-15T02:58:36;209.93;;;44.37;;
11473;SDS011;5793;52.238;13.438;2023-02-15T03:01:12;247.00;;;43.07;;
11473;SDS011;5793;52.238;13.438;2023-02-15T03:03:43;104.13;;;28.93;;
11473;SDS011;5793;52.238;13.438;2023-02-15T03:06:16;466.67;;;56.87;;
11473;SDS011;5793;52.238;13.438;2023-02-15T03:08:47;230.23;;;45.53;;
11473;SDS011;5793;52.238;13.438;2023-02-15T03:11:17;278.73;;;43.37;;
11473;SDS011;5793;52.238;13.438;2023-02-15T03:13:45;222.63;;;40.90;;
11473;SDS011;5793;52.238;13.438;2023-02-15T03:16:16;156.53;;;35.60;;
11473;SDS011;5793;52.238;13.438;2023-02-15T03:18:53;114.17;;;33.57;;
11473;SDS011;5793;52.238;13.438;2023-02-15T03:21:27;80.17;;;30.33;;
11473;SDS011;5793;52.238;13.438;2023-02-15T03:24:00;69.00;;;28.73;;
11473;SDS011;5793;52.238;13.438;2023-02-15T03:26:32;62.27;;;27.63;;
11473;SDS011;5793;52.238;13.438;2023-02-15T03:29:01;69.80;;;28.07;;
11473;SDS011;5793;52.238;13.438;2023-02-15T03:31:33;63.83;;;27.60;;
11473;SDS011;5793;52.238;13.438;2023-02-15T03:34:06;63.70;;;27.37;;
11473;SDS011;5793;52.238;13.438;2023-02-15T03:36:41;62.00;;;27.10;;
11473;SDS011;5793;52.238;13.438;2023-02-15T03:39:13;76.47;;;28.77;;
11473;SDS011;5793;52.238;13.438;2023-02-15T03:41:46;77.67;;;30.77;;
11473;SDS011;5793;52.238;13.438;2023-02-15T03:44:23;85.40;;;31.43;;
11473;SDS011;5793;52.238;13.438;2023-02-15T03:46:57;73.60;;;30.30;;
11473;SDS011;5793;52.238;13.438;2023-02-15T03:49:32;76.13;;;30.63;;
11473;SDS011;5793;52.238;13.438;2023-02-15T03:52:09;81.40;;;31.67;;
11473;SDS011;5793;52.238;13.438;2023-02-15T03:54:40;95.50;;;34.00;;
11473;SDS011;5793;52.238;13.438;2023-02-15T03:57:14;146.53;;;40.33;;
11473;SDS011;5793;52.238;13.438;2023-02-15T04:00:03;127.73;;;38.67;;
11473;SDS011;5793;52.238;13.438;2023-02-15T04:03:04;146.80;;;40.93;;
11473;SDS011;5793;52.238;13.438;2023-02-15T04:05:44;114.60;;;36.93;;
11473;SDS011;5793;52.238;13.438;2023-02-15T04:08:13;115.27;;;35.83;;
11473;SDS011;5793;52.238;13.438;2023-02-15T04:10:41;107.73;;;37.93;;
11473;SDS011;5793;52.238;13.438;2023-02-15T04:13:21;169.40;;;43.60;;
11473;SDS011;5793;52.238;13.438;2023-02-15T04:15:53;138.07;;;40.67;;
11473;SDS011;5793;52.238;13.438;2023-02-15T04:18:31;153.83;;;42.23;;
11473;SDS011;5793;52.238;13.438;2023-02-15T04:21:17;237.63;;;49.53;;
11473;SDS011;5793;52.238;13.438;2023-02-15T04:24:04;397.30;;;55.13;;
11473;SDS011;5793;52.238;13.438;2023-02-15T04:26:50;462.60;;;61.80;;
11473;SDS011;5793;52.238;13.438;2023-02-15T04:29:19;225.80;;;43.30;;
11473;SDS011;5793;52.238;13.438;2023-02-15T04:31:48;562.83;;;65.93;;
11473;SDS011;5793;52.238;13.438;2023-02-15T04:34:17;210.53;;;45.70;;
11473;SDS011;5793;52.238;13.438;2023-02-15T04:36:45;187.63;;;41.93;;
11473;SDS011;5793;52.238;13.438;2023-02-15T04:39:14;189.33;;;43.13;;
11473;SDS011;5793;52.238;13.438;2023-02-15T04:41:43;189.87;;;42.80;;
11473;SDS011;5793;52.238;13.438;2023-02-15T04:44:11;137.23;;;38.13;;
11473;SDS011;5793;52.238;13.438;2023-02-15T04:46:39;145.70;;;38.63;;
11473;SDS011;5793;52.238;13.438;2023-02-15T04:49:07;168.10;;;42.63;;
11473;SDS011;5793;52.238;13.438;2023-02-15T04:51:35;175.90;;;37.50;;
11473;SDS011;5793;52.238;13.438;2023-02-15T04:54:03;126.50;;;34.43;;
11473;SDS011;5793;52.238;13.438;2023-02-15T04:56:32;116.10;;;32.47;;
11473;SDS011;5793;52.238;13.438;2023-02-15T04:59:01;173.67;;;36.73;;
11473;SDS011;5793;52.238;13.438;2023-02-15T05:01:28;131.57;;;35.07;;
11473;SDS011;5793;52.238;13.438;2023-02-15T05:03:57;136.43;;;32.50;;
11473;SDS011;5793;52.238;13.438;2023-02-15T05:06:24;144.37;;;34.13;;
11473;SDS011;5793;52.238;13.438;2023-02-15T05:08:52;85.93;;;30.77;;
11473;SDS011;5793;52.238;13.438;2023-02-15T05:11:20;218.47;;;39.93;;
11473;SDS011;5793;52.238;13.438;2023-02-15T05:13:49;335.10;;;46.77;;
11473;SDS011;5793;52.238;13.438;2023-02-15T05:16:17;110.90;;;29.87;;
11473;SDS011;5793;52.238;13.438;2023-02-15T05:18:45;102.37;;;31.47;;
11473;SDS011;5793;52.238;13.438;2023-02-15T05:21:12;171.67;;;33.43;;
11473;SDS011;5793;52.238;13.438;2023-02-15T05:23:44;192.00;;;37.67;;
11473;SDS011;5793;52.238;13.438;2023-02-15T05:26:12;205.47;;;36.70;;
11473;SDS011;5793;52.238;13.438;2023-02-15T05:29:02;146.67;;;31.23;;
11473;SDS011;5793;52.238;13.438;2023-02-15T05:31:30;132.10;;;31.33;;
11473;SDS011;5793;52.238;13.438;2023-02-15T05:34:00;155.43;;;33.20;;
11473;SDS011;5793;52.238;13.438;2023-02-15T05:36:29;115.20;;;31.23;;
11473;SDS011;5793;52.238;13.438;2023-02-15T05:38:56;164.57;;;33.00;;
11473;SDS011;5793;52.238;13.438;2023-02-15T05:41:24;178.73;;;37.27;;
11473;SDS011;5793;52.238;13.438;2023-02-15T05:43:54;222.60;;;40.17;;
11473;SDS011;5793;52.238;13.438;2023-02-15T05:46:23;113.00;;;31.30;;
11473;SDS011;5793;52.238;13.438;2023-02-15T05:48:51;218.93;;;37.47;;
11473;SDS011;5793;52.238;13.438;2023-02-15T05:51:19;103.73;;;28.63;;
11473;SDS011;5793;52.238;13.438;2023-02-15T05:53:47;92.60;;;30.13;;
11473;SDS011;5793;52.238;13.438;2023-02-15T05:56:14;105.50;;;30.23;;
11473;SDS011;5793;52.238;13.438;2023-02-15T05:58:42;117.20;;;29.10;;
11473;SDS011;5793;52.238;13.438;2023-02-15T06:01:10;282.53;;;43.73;;
11473;SDS011;5793;52.238;13.438;2023-02-15T06:03:40;104.37;;;32.43;;
11473;SDS011;5793;52.238;13.438;2023-02-15T06:06:08;113.87;;;31.90;;
11473;SDS011;5793;52.238;13.438;2023-02-15T06:08:37;132.60;;;36.03;;
11473;SDS011;5793;52.238;13.438;2023-02-15T06:11:05;206.20;;;41.17;;
11473;SDS011;5793;52.238;13.438;2023-02-15T06:13:34;131.03;;;35.50;;
11473;SDS011;5793;52.238;13.438;2023-02-15T06:16:04;179.47;;;39.37;;
11473;SDS011;5793;52.238;13.438;2023-02-15T06:18:32;192.80;;;40.57;;
11473;SDS011;5793;52.238;13.438;2023-02-15T06:21:01;308.30;;;47.80;;
11473;SDS011;5793;52.238;13.438;2023-02-15T06:23:29;173.20;;;40.93;;
11473;SDS011;5793;52.238;13.438;2023-02-15T06:25:57;129.97;;;34.43;;
11473;SDS011;5793;52.238;13.438;2023-02-15T06:28:25;112.23;;;33.13;;
11473;SDS011;5793;52.238;13.438;2023-02-15T06:30:52;230.87;;;44.23;;
11473;SDS011;5793;52.238;13.438;2023-02-15T06:33:20;127.50;;;36.27;;
11473;SDS011;5793;52.238;13.438;2023-02-15T06:35:48;123.47;;;36.90;;
11473;SDS011;5793;52.238;13.438;2023-02-15T06:38:18;171.70;;;41.57;;
11473;SDS011;5793;52.238;13.438;2023-02-15T06:40:46;111.67;;;33.87;;
11473;SDS011;5793;52.238;13.438;2023-02-15T06:43:13;99.67;;;32.63;;
11473;SDS011;5793;52.238;13.438;2023-02-15T06:45:41;123.37;;;37.17;;
11473;SDS011;5793;52.238;13.438;2023-02-15T06:48:12;95.43;;;31.63;;
11473;SDS011;5793;52.238;13.438;2023-02-15T06:50:40;144.60;;;33.87;;
11473;SDS011;5793;52.238;13.438;2023-02-15T06:53:11;187.80;;;38.80;;
11473;SDS011;5793;52.238;13.438;2023-02-15T06:55:40;106.80;;;31.00;;
11473;SDS011;5793;52.238;13.438;2023-02-15T06:58:08;86.67;;;27.77;;
11473;SDS011;5793;52.238;13.438;2023-02-15T07:00:36;89.30;;;29.87;;
11473;SDS011;5793;52.238;13.438;2023-02-15T07:03:03;124.43;;;34.13;;
11473;SDS011;5793;52.238;13.438;2023-02-15T07:05:32;195.47;;;37.67;;
11473;SDS011;5793;52.238;13.438;2023-02-15T07:08:01;115.70;;;30.37;;
11473;SDS011;5793;52.238;13.438;2023-02-15T07:10:28;120.03;;;31.23;;
11473;SDS011;5793;52.238;13.438;2023-02-15T07:12:58;88.30;;;29.37;;
11473;SDS011;5793;52.238;13.438;2023-02-15T07:15:24;137.77;;;33.37;;
11473;SDS011;5793;52.238;13.438;2023-02-15T07:17:52;238.90;;;43.03;;
11473;SDS011;5793;52.238;13.438;2023-02-15T07:20:21;280.37;;;44.17;;
11473;SDS011;5793;52.238;13.438;2023-02-15T07:22:49;235.73;;;40.13;;
11473;SDS011;5793;52.238;13.438;2023-02-15T07:25:18;136.90;;;33.67;;
11473;SDS011;5793;52.238;13.438;2023-02-15T07:27:45;143.23;;;35.43;;
11473;SDS011;5793;52.238;13.438;2023-02-15T07:30:15;154.77;;;39.60;;
11473;SDS011;5793;52.238;13.438;2023-02-15T07:32:44;85.73;;;34.27;;
11473;SDS011;5793;52.238;13.438;2023-02-15T07:35:34;108.80;;;32.17;;
11473;SDS011;5793;52.238;13.438;2023-02-15T07:38:02;104.17;;;32.57;;
11473;SDS011;5793;52.238;13.438;2023-02-15T07:40:30;107.10;;;35.43;;
11473;SDS011;5793;52.238;13.438;2023-02-15T07:42:58;95.20;;;33.43;;
11473;SDS011;5793;52.238;13.438;2023-02-15T07:45:27;92.47;;;31.37;;
11473;SDS011;5793;52.238;13.438;2023-02-15T07:47:55;121.07;;;33.57;;
11473;SDS011;5793;52.238;13.438;2023-02-15T07:50:22;90.40;;;31.60;;
11473;SDS011;5793;52.238;13.438;2023-02-15T07:52:50;92.77;;;31.47;;
11473;SDS011;5793;52.238;13.438;2023-02-15T07:55:18;88.40;;;31.20;;
11473;SDS011;5793;52.238;13.438;2023-02-15T07:57:46;86.17;;;30.80;;
11473;SDS011;5793;52.238;13.438;2023-02-15T08:00:16;94.80;;;33.07;;
11473;SDS011;5793;52.238;13.438;2023-02-15T08:02:48;84.47;;;30.57;;
11473;SDS011;5793;52.238;13.438;2023-02-15T08:05:38;62.20;;;27.97;;
11473;SDS011;5793;52.238;13.438;2023-02-15T08:08:06;69.83;;;30.40;;
11473;SDS011;5793;52.238;13.438;2023-02-15T08:10:34;82.00;;;30.50;;
11473;SDS011;5793;52.238;13.438;2023-02-15T08:13:20;113.47;;;33.50;;
11473;SDS011;5793;52.238;13.438;2023-02-15T08:15:48;98.60;;;32.80;;
11473;SDS011;5793;52.238;13.438;2023-02-15T08:18:17;68.23;;;29.93;;
11473;SDS011;5793;52.238;13.438;2023-02-15T08:20:48;80.97;;;30.37;;
11473;SDS011;5793;52.238;13.438;2023-02-15T08:23:16;88.30;;;32.53;;
11473;SDS011;5793;52.238;13.438;2023-02-15T08:25:44;126.40;;;34.03;;
11473;SDS011;5793;52.238;13.438;2023-02-15T08:28:11;73.43;;;30.10;;
11473;SDS011;5793;52.238;13.438;2023-02-15T08:30:42;81.77;;;30.17;;
11473;SDS011;5793;52.238;13.438;2023-02-15T08:33:09;73.13;;;28.93;;
11473;SDS011;5793;52.238;13.438;2023-02-15T08:35:38;75.57;;;29.53;;
11473;SDS011;5793;52.238;13.438;2023-02-15T08:38:06;87.40;;;30.70;;
11473;SDS011;5793;52.238;13.438;2023-02-15T08:40:34;76.57;;;30.10;;
11473;SDS011;5793;52.238;13.438;2023-02-15T08:43:04;77.70;;;29.47;;
11473;SDS011;5793;52.238;13.438;2023-02-15T08:45:33;64.37;;;30.10;;
11473;SDS011;5793;52.238;13.438;2023-02-15T08:48:01;66.73;;;28.83;;
11473;SDS011;5793;52.238;13.438;2023-02-15T08:50:29;54.80;;;26.37;;
11473;SDS011;5793;52.238;13.438;2023-02-15T08:52:58;69.57;;;28.37;;
11473;SDS011;5793;52.238;13.438;2023-02-15T08:55:26;54.07;;;26.43;;
11473;SDS011;5793;52.238;13.438;2023-02-15T08:57:54;78.40;;;29.33;;
11473;SDS011;5793;52.238;13.438;2023-02-15T09:00:22;55.77;;;26.97;;
11473;SDS011;5793;52.238;13.438;2023-02-15T09:02:51;56.50;;;27.07;;
11473;SDS011;5793;52.238;13.438;2023-02-15T09:05:19;58.80;;;27.23;;
11473;SDS011;5793;52.238;13.438;2023-02-15T09:07:47;57.30;;;27.80;;
11473;SDS011;5793;52.238;13.438;2023-02-15T09:10:16;57.93;;;25.90;;
11473;SDS011;5793;52.238;13.438;2023-02-15T09:12:44;56.73;;;27.20;;
11473;SDS011;5793;52.238;13.438;2023-02-15T09:15:11;79.63;;;29.53;;
11473;SDS011;5793;52.238;13.438;2023-02-15T09:17:39;55.33;;;26.77;;
11473;SDS011;5793;52.238;13.438;2023-02-15T09:20:07;63.83;;;28.60;;
11473;SDS011;5793;52.238;13.438;2023-02-15T09:22:35;60.70;;;27.57;;
11473;SDS011;5793;52.238;13.438;2023-02-15T09:25:03;55.47;;;27.90;;
11473;SDS011;5793;52.238;13.438;2023-02-15T09:27:33;51.30;;;27.20;;
11473;SDS011;5793;52.238;13.438;2023-02-15T09:30:01;57.83;;;28.73;;
11473;SDS011;5793;52.238;13.438;2023-02-15T09:32:28;58.20;;;28.83;;
11473;SDS011;5793;52.238;13.438;2023-02-15T09:34:56;50.47;;;27.07;;
11473;SDS011;5793;52.238;13.438;2023-02-15T09:37:24;49.27;;;26.43;;
11473;SDS011;5793;52.238;13.438;2023-02-15T09:39:52;45.33;;;26.20;;
11473;SDS011;5793;52.238;13.438;2023-02-15T09:45:30;44.30;;;24.73;;
11473;SDS011;5793;52.238;13.438;2023-02-15T09:48:21;42.10;;;24.20;;
11473;SDS011;5793;52.238;13.438;2023-02-15T09:51:05;41.30;;;23.17;;
11473;SDS011;5793;52.238;13.438;2023-02-15T09:53:58;34.90;;;21.50;;
11473;SDS011;5793;52.238;13.438;2023-02-15T09:56:38;32.47;;;20.57;;
11473;SDS011;5793;52.238;13.438;2023-02-15T09:59:14;33.03;;;21.13;;
11473;SDS011;5793;52.238;13.438;2023-02-15T10:01:49;30.57;;;19.80;;
11473;SDS011;5793;52.238;13.438;2023-02-15T10:04:30;29.93;;;18.87;;
11473;SDS011;5793;52.238;13.438;2023-02-15T10:07:17;28.33;;;18.03;;
11473;SDS011;5793;52.238;13.438;2023-02-15T10:09:57;29.63;;;20.00;;
11473;SDS011;5793;52.238;13.438;2023-02-15T10:15:47;29.87;;;19.77;;
11473;SDS011;5793;52.238;13.438;2023-02-15T10:18:34;33.60;;;20.73;;
11473;SDS011;5793;52.238;13.438;2023-02-15T10:21:16;33.77;;;20.10;;
11473;SDS011;5793;52.238;13.438;2023-02-15T10:24:01;25.27;;;17.50;;
11473;SDS011;5793;52.238;13.438;2023-02-15T10:26:43;29.10;;;19.13;;
11473;SDS011;5793;52.238;13.438;2023-02-15T10:29:14;27.23;;;18.33;;
11473;SDS011;5793;52.238;13.438;2023-02-15T10:31:53;27.90;;;17.13;;
11473;SDS011;5793;52.238;13.438;2023-02-15T10:34:29;25.77;;;16.40;;
11473;SDS011;5793;52.238;13.438;2023-02-15T10:37:08;24.93;;;18.47;;
11473;SDS011;5793;52.238;13.438;2023-02-15T10:39:52;25.23;;;18.13;;
11473;SDS011;5793;52.238;13.438;2023-02-15T10:42:30;30.10;;;17.97;;
11473;SDS011;5793;52.238;13.438;2023-02-15T10:45:13;27.30;;;17.93;;
11473;SDS011;5793;52.238;13.438;2023-02-15T10:48:01;27.90;;;17.93;;
11473;SDS011;5793;52.238;13.438;2023-02-15T10:50:43;33.77;;;21.93;;
11473;SDS011;5793;52.238;13.438;2023-02-15T10:56:17;31.40;;;21.67;;
11473;SDS011;5793;52.238;13.438;2023-02-15T10:58:54;24.83;;;17.80;;
11473;SDS011;5793;52.238;13.438;2023-02-15T11:01:43;27.43;;;17.30;;
11473;SDS011;5793;52.238;13.438;2023-02-15T11:04:29;23.80;;;16.70;;
11473;SDS011;5793;52.238;13.438;2023-02-15T11:07:12;22.60;;;15.90;;
11473;SDS011;5793;52.238;13.438;2023-02-15T11:09:44;28.60;;;18.83;;
11473;SDS011;5793;52.238;13.438;2023-02-15T11:12:17;25.80;;;17.43;;
11473;SDS011;5793;52.238;13.438;2023-02-15T11:14:50;30.20;;;18.33;;
11473;SDS011;5793;52.238;13.438;2023-02-15T11:17:23;31.40;;;20.83;;
11473;SDS011;5793;52.238;13.438;2023-02-15T11:19:58;33.53;;;22.20;;
11473;SDS011;5793;52.238;13.438;2023-02-15T11:22:34;27.57;;;18.37;;
11473;SDS011;5793;52.238;13.438;2023-02-15T11:25:05;26.67;;;17.67;;
11473;SDS011;5793;52.238;13.438;2023-02-15T11:27:45;26.77;;;19.30;;
11473;SDS011;5793;52.238;13.438;2023-02-15T11:32:46;27.63;;;19.47;;
11473;SDS011;5793;52.238;13.438;2023-02-15T11:35:23;28.70;;;20.53;;
11473;SDS011;5793;52.238;13.438;2023-02-15T11:37:54;32.63;;;22.60;;
11473;SDS011;5793;52.238;13.438;2023-02-15T11:40:30;28.77;;;19.97;;
11473;SDS011;5793;52.238;13.438;2023-02-15T11:43:02;28.93;;;19.70;;
11473;SDS011;5793;52.238;13.438;2023-02-15T11:45:33;25.23;;;17.50;;
11473;SDS011;5793;52.238;13.438;2023-02-15T11:48:05;23.80;;;16.13;;
11473;SDS011;5793;52.238;13.438;2023-02-15T11:50:39;25.73;;;19.63;;
11473;SDS011;5793;52.238;13.438;2023-02-15T11:53:09;26.67;;;18.10;;
11473;SDS011;5793;52.238;13.438;2023-02-15T11:55:40;26.77;;;18.90;;
11473;SDS011;5793;52.238;13.438;2023-02-15T11:58:12;26.23;;;17.83;;
11473;SDS011;5793;52.238;13.438;2023-02-15T12:00:46;28.13;;;19.53;;
11473;SDS011;5793;52.238;13.438;2023-02-15T12:03:17;23.70;;;16.73;;
11473;SDS011;5793;52.238;13.438;2023-02-15T12:05:58;30.77;;;19.10;;
11473;SDS011;5793;52.238;13.438;2023-02-15T12:08:33;27.77;;;17.63;;
11473;SDS011;5793;52.238;13.438;2023-02-15T12:11:06;26.33;;;16.80;;
11473;SDS011;5793;52.238;13.438;2023-02-15T12:13:46;25.10;;;15.70;;
11473;SDS011;5793;52.238;13.438;2023-02-15T12:16:22;25.53;;;15.37;;
11473;SDS011;5793;52.238;13.438;2023-02-15T12:18:50;20.60;;;15.13;;
11473;SDS011;5793;52.238;13.438;2023-02-15T12:21:28;19.03;;;14.13;;
11473;SDS011;5793;52.238;13.438;2023-02-15T12:23:58;22.73;;;15.33;;
11473;SDS011;5793;52.238;13.438;2023-02-15T12:26:30;20.10;;;14.63;;
11473;SDS011;5793;52.238;13.438;2023-02-15T12:29:02;24.27;;;15.50;;
11473;SDS011;5793;52.238;13.438;2023-02-15T12:31:40;18.63;;;13.47;;
11473;SDS011;5793;52.238;13.438;2023-02-15T12:34:12;21.70;;;14.70;;
11473;SDS011;5793;52.238;13.438;2023-02-15T12:36:46;18.30;;;12.80;;
11473;SDS011;5793;52.238;13.438;2023-02-15T12:39:21;17.00;;;12.10;;
11473;SDS011;5793;52.238;13.438;2023-02-15T12:41:57;13.90;;;10.87;;
11473;SDS011;5793;52.238;13.438;2023-02-15T12:44:31;16.37;;;12.07;;
11473;SDS011;5793;52.238;13.438;2023-02-15T12:47:00;18.33;;;10.90;;
11473;SDS011;5793;52.238;13.438;2023-02-15T12:49:30;14.43;;;9.73;;
11473;SDS011;5793;52.238;13.438;2023-02-15T12:52:01;14.33;;;10.03;;
11473;SDS011;5793;52.238;13.438;2023-02-15T12:54:34;12.63;;;9.53;;
11473;SDS011;5793;52.238;13.438;2023-02-15T12:57:15;13.70;;;9.00;;
11473;SDS011;5793;52.238;13.438;2023-02-15T12:59:53;14.50;;;9.03;;
11473;SDS011;5793;52.238;13.438;2023-02-15T13:02:24;11.57;;;8.47;;
11473;SDS011;5793;52.238;13.438;2023-02-15T13:04:57;16.03;;;9.27;;
11473;SDS011;5793;52.238;13.438;2023-02-15T13:07:36;21.13;;;10.07;;
11473;SDS011;5793;52.238;13.438;2023-02-15T13:10:05;11.70;;;8.15;;
11473;SDS011;5793;52.238;13.438;2023-02-15T13:12:48;10.13;;;7.40;;
11473;SDS011;5793;52.238;13.438;2023-02-15T13:15:27;12.27;;;8.35;;
11473;SDS011;5793;52.238;13.438;2023-02-15T13:17:59;15.45;;;7.55;;
11473;SDS011;5793;52.238;13.438;2023-02-15T13:20:28;9.90;;;7.13;;
11473;SDS011;5793;52.238;13.438;2023-02-15T13:22:59;10.27;;;7.20;;
11473;SDS011;5793;52.238;13.438;2023-02-15T13:25:32;9.97;;;7.17;;
11473;SDS011;5793;52.238;13.438;2023-02-15T13:28:09;15.37;;;7.27;;
11473;SDS011;5793;52.238;13.438;2023-02-15T13:30:42;12.55;;;7.05;;
11473;SDS011;5793;52.238;13.438;2023-02-15T13:33:12;11.03;;;8.47;;
11473;SDS011;5793;52.238;13.438;2023-02-15T13:35:46;8.82;;;6.47;;
11473;SDS011;5793;52.238;13.438;2023-02-15T13:38:30;11.60;;;7.47;;
11473;SDS011;5793;52.238;13.438;2023-02-15T13:41:12;7.53;;;5.80;;
11473;SDS011;5793;52.238;13.438;2023-02-15T13:43:45;10.23;;;6.72;;
11473;SDS011;5793;52.238;13.438;2023-02-15T13:46:23;7.97;;;6.07;;
11473;SDS011;5793;52.238;13.438;2023-02-15T13:49:05;8.30;;;6.30;;
11473;SDS011;5793;52.238;13.438;2023-02-15T13:51:43;8.35;;;6.30;;
11473;SDS011;5793;52.238;13.438;2023-02-15T13:54:27;10.32;;;6.40;;
11473;SDS011;5793;52.238;13.438;2023-02-15T13:57:06;9.23;;;7.00;;
11473;SDS011;5793;52.238;13.438;2023-02-15T13:59:53;9.88;;;7.28;;
11473;SDS011;5793;52.238;13.438;2023-02-15T14:02:35;9.57;;;6.43;;
11473;SDS011;5793;52.238;13.438;2023-02-15T14:05:23;8.75;;;6.85;;
11473;SDS011;5793;52.238;13.438;2023-02-15T14:07:59;16.73;;;6.93;;
11473;SDS011;5793;52.238;13.438;2023-02-15T14:10:40;18.43;;;8.97;;
11473;SDS011;5793;52.238;13.438;2023-02-15T14:16:32;11.97;;;7.80;;
11473;SDS011;5793;52.238;13.438;2023-02-15T14:19:10;11.37;;;6.90;;
11473;SDS011;5793;52.238;13.438;2023-02-15T14:21:43;9.20;;;7.13;;
11473;SDS011;5793;52.238;13.438;2023-02-15T14:24:18;8.13;;;6.53;;
11473;SDS011;5793;52.238;13.438;2023-02-15T14:26:58;11.30;;;6.57;;
11473;SDS011;5793;52.238;13.438;2023-02-15T14:29:38;9.17;;;6.87;;
11473;SDS011;5793;52.238;13.438;2023-02-15T14:32:14;8.13;;;6.47;;
11473;SDS011;5793;52.238;13.438;2023-02-15T14:34:48;10.60;;;6.80;;
11473;SDS011;5793;52.238;13.438;2023-02-15T14:37:22;11.77;;;6.87;;
11473;SDS011;5793;52.238;13.438;2023-02-15T14:40:00;8.10;;;6.37;;
11473;SDS011;5793;52.238;13.438;2023-02-15T14:43:08;9.57;;;6.40;;
11473;SDS011;5793;52.238;13.438;2023-02-15T14:45:46;8.40;;;6.60;;
11473;SDS011;5793;52.238;13.438;2023-02-15T14:48:19;9.87;;;6.57;;
11473;SDS011;5793;52.238;13.438;2023-02-15T14:50:52;8.97;;;6.27;;
11473;SDS011;5793;52.238;13.438;2023-02-15T14:53:23;11.00;;;6.63;;
11473;SDS011;5793;52.238;13.438;2023-02-15T14:56:15;7.97;;;6.40;;
11473;SDS011;5793;52.238;13.438;2023-02-15T14:58:56;9.67;;;6.47;;
11473;SDS011;5793;52.238;13.438;2023-02-15T15:01:26;8.77;;;6.83;;
11473;SDS011;5793;52.238;13.438;2023-02-15T15:03:57;9.53;;;7.00;;
11473;SDS011;5793;52.238;13.438;2023-02-15T15:06:28;10.83;;;6.90;;
11473;SDS011;5793;52.238;13.438;2023-02-15T15:08:59;8.97;;;6.23;;